Terminal Aerodrome Forecast
Issued by NWS Melbourne, FL

Home | Current Version | Previous Version | Text Only | Print | Product List | Glossary On
Versions: 1 2 3 4 5 6 7 8 9 10 11 12 13 14
783
FTUS42 KMLB 131720
TAFMLB
TAF
KMLB 131720Z 1318/1418 02012KT P6SM SKC
     FM131900 01013G21KT P6SM SKC
     FM140000 36010KT P6SM SKC
     FM140900 03009KT P6SM FEW035
     FM141400 06011KT P6SM BKN035=

USA.gov is the U.S. government's official web portal to all federal, state and local government web resources and services.